»·PEaware :: DAL576 KSLC-KSAN

DAL576 :: KSLC-KSAN

FLIGHT INFORMATION

Flight Status: Arrived
Operator:
Delta Air Lines
More flights by this operator :: More flights under this callsign
Pilot: Anonymous 8274 (8274)
Aircraft: BOEING 737-200
(B732)
More flights by this aircraft type
Origin: KSLC Salt Lake City Intl
United States
Destination: KSAN San Diego Intl-Lindbergh
United States
More flights between these airports :: More routes between these airports
Route: +SLC4 DTA MLF BLD TNP BARET5
File this flight plan on PilotEdge
Remarks:
Altitude:
(Current/Filed)
32,000ft
Speed:
(Current/Filed)
442kts
Departed: 25-Nov-20 05:24 PM
Arrived: 25-Nov-20 07:13 PM
Distance/Time
Traveled:
544nm/1:49
Distance/Time
To Go:
Arrived

Flight Plot

Page will automatically refresh every two minutes.

Flight plan parsing failed; only flown route is shown


Map Options




Map Legend


Flown Route
Filed Route
Departure Airport
Arrival Airport
Navaid (VOR, NDB)
Fix

Horizontal Profiles

Position Reports

Time Latitude Longitude Heading Altitude Ground
Speed
25-Nov-20 16:43 40.788109 -111.980990 283 4236ft 0kts
25-Nov-20 16:44 40.788109 -111.980990 283 4236ft 0kts
25-Nov-20 16:45 40.788109 -111.980990 283 4236ft 0kts
25-Nov-20 16:46 40.788109 -111.980990 283 4236ft 0kts
25-Nov-20 16:47 40.788109 -111.980990 283 4236ft 0kts
25-Nov-20 16:48 40.788109 -111.980990 283 4236ft 0kts
25-Nov-20 16:49 40.788109 -111.980990 283 4236ft 0kts
25-Nov-20 16:50 40.788109 -111.980990 283 4236ft 0kts
25-Nov-20 16:51 40.788109 -111.980990 283 4236ft 0kts
25-Nov-20 16:52 40.788109 -111.980990 283 4236ft 0kts
25-Nov-20 16:53 40.788109 -111.980990 283 4236ft 0kts
25-Nov-20 16:54 40.788109 -111.980990 283 4236ft 0kts
25-Nov-20 16:54 40.788109 -111.980990 283 4236ft 0kts
25-Nov-20 16:56 40.788109 -111.980990 283 4236ft 0kts
25-Nov-20 16:56 40.788109 -111.980990 283 4236ft 0kts
25-Nov-20 16:58 40.788109 -111.980990 283 4236ft 0kts
25-Nov-20 16:58 40.788109 -111.980990 283 4236ft 0kts
25-Nov-20 16:59 40.788109 -111.980990 283 4236ft 0kts
25-Nov-20 17:01 40.788109 -111.980990 283 4236ft 0kts
25-Nov-20 17:01 40.788109 -111.980990 283 4236ft 0kts
25-Nov-20 17:02 40.788109 -111.980990 283 4236ft 0kts
25-Nov-20 17:03 40.788109 -111.980990 283 4236ft 0kts
25-Nov-20 17:04 40.788109 -111.980990 283 4236ft 0kts
25-Nov-20 17:05 40.788109 -111.980990 283 4236ft 0kts
25-Nov-20 17:06 40.788081 -111.980830 282 4236ft 2kts
25-Nov-20 17:07 40.787764 -111.980232 359 4236ft 2kts
25-Nov-20 17:08 40.787615 -111.980278 20 4236ft 0kts
25-Nov-20 17:09 40.787615 -111.980278 20 4236ft 0kts
25-Nov-20 17:10 40.787615 -111.980278 20 4236ft 0kts
25-Nov-20 17:11 40.787879 -111.980147 20 4236ft 7kts
25-Nov-20 17:12 40.789662 -111.979022 85 4236ft 7kts
25-Nov-20 17:13 40.789686 -111.978488 84 4236ft 0kts
25-Nov-20 17:14 40.789686 -111.978488 84 4236ft 0kts
25-Nov-20 17:15 40.789687 -111.978465 84 4236ft 1kts
25-Nov-20 17:16 40.788792 -111.976940 175 4236ft 9kts
25-Nov-20 17:17 40.781579 -111.976121 174 4236ft 31kts
25-Nov-20 17:18 40.774678 -111.974748 150 4236ft 0kts
25-Nov-20 17:19 40.774678 -111.974748 150 4236ft 0kts
25-Nov-20 17:20 40.774678 -111.974748 150 4236ft 0kts
25-Nov-20 17:21 40.774678 -111.974747 150 4236ft 0kts
25-Nov-20 17:22 40.775075 -111.973175 354 4236ft 4kts
25-Nov-20 17:23 40.800651 -111.975962 355 4626ft 156kts
25-Nov-20 17:24 40.847923 -111.979124 355 6057ft 199kts
25-Nov-20 17:25 40.914167 -111.984503 354 8106ft 257kts
25-Nov-20 17:26 40.988145 -111.991529 353 9984ft 270kts
25-Nov-20 17:27 41.064229 -111.996557 354 10015ft 267kts
25-Nov-20 17:28 41.122413 -112.030352 278 10019ft 245kts
25-Nov-20 17:29 41.071959 -112.085684 188 11568ft 290kts
25-Nov-20 17:30 40.986809 -112.088507 185 14048ft 309kts
25-Nov-20 17:31 40.899965 -112.086307 186 16525ft 314kts
25-Nov-20 17:32 40.810195 -112.090700 196 18605ft 316kts
25-Nov-20 17:33 40.716510 -112.114703 205 20005ft 333kts
25-Nov-20 17:34 40.624041 -112.157070 207 21694ft 341kts
25-Nov-20 17:35 40.533029 -112.199045 207 23379ft 342kts
25-Nov-20 17:36 40.441807 -112.240171 207 25019ft 339kts
25-Nov-20 17:37 40.348976 -112.272949 201 26095ft 352kts
25-Nov-20 17:38 40.251844 -112.295536 198 27157ft 359kts
25-Nov-20 17:39 40.151705 -112.310566 197 28220ft 360kts
25-Nov-20 17:40 40.050991 -112.324046 197 29209ft 359kts
25-Nov-20 17:41 39.952202 -112.339417 200 30112ft 352kts
25-Nov-20 17:42 39.856800 -112.360405 202 30958ft 347kts
25-Nov-20 17:43 39.762857 -112.388136 207 31767ft 338kts
25-Nov-20 17:44 39.672146 -112.424783 206 32037ft 349kts
25-Nov-20 17:45 39.572869 -112.447477 198 32030ft 366kts
25-Nov-20 17:46 39.471300 -112.463131 198 32029ft 368kts
25-Nov-20 17:47 39.369872 -112.484712 201 32028ft 366kts
25-Nov-20 17:48 39.272264 -112.518171 211 32027ft 353kts
25-Nov-20 17:49 39.183668 -112.574254 216 32022ft 347kts
25-Nov-20 17:50 39.091832 -112.623604 207 32027ft 356kts
25-Nov-20 17:51 38.998051 -112.662359 208 32032ft 353kts
25-Nov-20 17:52 38.905791 -112.710945 212 32035ft 351kts
25-Nov-20 17:53 38.817226 -112.761979 212 32037ft 353kts
25-Nov-20 17:54 38.726379 -112.814617 212 32036ft 354kts
25-Nov-20 17:55 38.635251 -112.867308 211 32033ft 356kts
25-Nov-20 17:56 38.542332 -112.915959 210 32031ft 358kts
25-Nov-20 17:57 38.448561 -112.964797 210 32030ft 358kts
25-Nov-20 17:58 38.354477 -113.015046 214 32030ft 354kts
25-Nov-20 17:59 38.271961 -113.083139 221 32034ft 348kts
25-Nov-20 18:00 38.190971 -113.155727 218 32036ft 349kts
25-Nov-20 18:01 38.106883 -113.221237 217 32036ft 349kts
25-Nov-20 18:02 38.023060 -113.287566 218 32037ft 350kts
25-Nov-20 18:03 37.939666 -113.355231 218 32036ft 352kts
25-Nov-20 18:04 37.858196 -113.422074 218 32038ft 357kts
25-Nov-20 18:05 37.773490 -113.491603 218 32037ft 361kts
25-Nov-20 18:06 37.687440 -113.562361 218 32037ft 365kts
25-Nov-20 18:07 37.600469 -113.633967 218 32036ft 368kts
25-Nov-20 18:08 37.518131 -113.701768 218 32037ft 371kts
25-Nov-20 18:09 37.429426 -113.774848 218 32036ft 375kts
25-Nov-20 18:10 37.340510 -113.848361 218 32036ft 378kts
25-Nov-20 18:11 37.251083 -113.922557 218 32042ft 379kts
25-Nov-20 18:12 37.162197 -113.996467 218 32069ft 377kts
25-Nov-20 18:13 37.072649 -114.071235 218 32074ft 375kts
25-Nov-20 18:14 36.984034 -114.145585 218 32064ft 374kts
25-Nov-20 18:15 36.898871 -114.217251 218 32057ft 374kts
25-Nov-20 18:16 36.811737 -114.290789 218 32054ft 374kts
25-Nov-20 18:17 36.724619 -114.364531 218 32054ft 374kts
25-Nov-20 18:18 36.635406 -114.434929 208 32053ft 381kts
25-Nov-20 18:19 36.534298 -114.480428 205 32059ft 383kts
25-Nov-20 18:20 36.432452 -114.525273 205 32054ft 384kts
25-Nov-20 18:21 36.330411 -114.570662 209 32053ft 381kts
25-Nov-20 18:22 36.239145 -114.638622 222 32054ft 373kts
25-Nov-20 18:23 36.161218 -114.717001 222 32055ft 374kts
25-Nov-20 18:24 36.079358 -114.799747 222 32054ft 375kts
25-Nov-20 18:25 35.993877 -114.877474 217 32054ft 378kts
25-Nov-20 18:26 35.899941 -114.937386 205 32049ft 387kts
25-Nov-20 18:27 35.808350 -115.004278 217 32047ft 383kts
25-Nov-20 18:28 35.716930 -115.078637 216 32050ft 385kts
25-Nov-20 18:29 35.624456 -115.151300 215 32053ft 386kts
25-Nov-20 18:30 35.531738 -115.222139 215 32055ft 388kts
25-Nov-20 18:31 35.437493 -115.292755 215 32059ft 388kts
25-Nov-20 18:32 35.343236 -115.363209 215 32064ft 388kts
25-Nov-20 18:34 35.249803 -115.433439 215 32063ft 388kts
25-Nov-20 18:35 35.156803 -115.503706 215 32063ft 388kts
25-Nov-20 18:36 35.063120 -115.574420 215 32063ft 388kts
25-Nov-20 18:37 34.970246 -115.644232 214 32063ft 388kts
25-Nov-20 18:38 34.881089 -115.704784 196 32064ft 398kts
25-Nov-20 18:39 34.766850 -115.695608 178 32076ft 413kts
25-Nov-20 18:40 34.651153 -115.690804 186 32082ft 409kts
25-Nov-20 18:41 34.535823 -115.698350 188 32082ft 410kts
25-Nov-20 18:42 34.424261 -115.725851 198 32082ft 404kts
25-Nov-20 18:43 34.313460 -115.758865 194 32082ft 407kts
25-Nov-20 18:44 34.199394 -115.773868 184 32088ft 413kts
25-Nov-20 18:45 34.082884 -115.771384 184 32117ft 413kts
25-Nov-20 18:46 33.974403 -115.808076 204 31988ft 400kts
25-Nov-20 18:47 33.872616 -115.851336 196 29794ft 392kts
25-Nov-20 18:48 33.764318 -115.868535 190 27658ft 389kts
25-Nov-20 18:49 33.658502 -115.892385 197 25575ft 379kts
25-Nov-20 18:49 33.573749 -115.918814 200 24178ft 370kts
25-Nov-20 18:51 33.470263 -115.987311 233 24090ft 367kts
25-Nov-20 18:52 33.411810 -116.089732 239 24111ft 366kts
25-Nov-20 18:52 33.371304 -116.178486 228 23682ft 358kts
25-Nov-20 18:54 33.278438 -116.264421 220 20937ft 357kts
25-Nov-20 18:54 33.213950 -116.325982 223 19061ft 353kts
25-Nov-20 18:56 33.129729 -116.418558 228 16509ft 346kts
25-Nov-20 18:56 33.073785 -116.486188 228 14766ft 342kts
25-Nov-20 18:57 33.007033 -116.566833 228 12729ft 337kts
25-Nov-20 18:58 32.938972 -116.637393 199 11986ft 317kts
25-Nov-20 18:59 32.854414 -116.649653 192 12000ft 311kts
25-Nov-20 19:00 32.775758 -116.684826 223 12000ft 299kts
25-Nov-20 19:01 32.713635 -116.750865 225 11181ft 293kts
25-Nov-20 19:02 32.685285 -116.834041 269 9343ft 275kts
25-Nov-20 19:03 32.692265 -116.922941 306 6850ft 274kts
25-Nov-20 19:04 32.763076 -116.936567 36 5462ft 278kts
25-Nov-20 19:05 32.755360 -116.860087 158 4072ft 274kts
25-Nov-20 19:06 32.698134 -116.895207 240 3779ft 222kts
25-Nov-20 19:07 32.678515 -116.957749 263 3802ft 188kts
25-Nov-20 19:08 32.691790 -117.015511 287 2908ft 179kts
25-Nov-20 19:09 32.704302 -117.067959 284 2339ft 157kts
25-Nov-20 19:10 32.715622 -117.115980 286 1355ft 150kts
25-Nov-20 19:11 32.726990 -117.162597 286 440ft 133kts
25-Nov-20 19:12 32.735320 -117.196979 277 24ft 26kts
25-Nov-20 19:13 32.734889 -117.198931 251 24ft 0kts

Navigation Log

Ident Type
Flight plan parsing failed, navigation log unavailable